X  Cerrar Datos meteorológicos de aviación METAR     LEAL Alicante-Elche Miguel Hernández Airport
Temperatura
22°C Temperatura
18°C Punto de rocío
78% Humedad



Viento
2 KM/H
1 MPH
0 M/S
1 NUDO



Calma
N
Condiciones actuales

Claro Claro
Presión 1016.93 (hPa) - 30.03 (inHg)
Visibilidad 6 (milla) - 9.7 (km)
Aeropuerto
Código de aeropuerto LEAL

localidad: Alicante-Elche Miguel Hernández Airport
Distancia: 30 (km)

Metar:
LEAL 240430Z VRB01KT CAVOK 22/18 Q1017 NOSIG

Hora: 24-07-2024 06:30 CEST